Time;durP1;ratioP1;P1;durP2;ratioP2;P2;SDS_P1;SDS_P2;PMS_P1;PMS_P2;Temp;Humidity;BMP_temperature;BMP_pressure;BME280_temperature;BME280_humidity;BME280_pressure;Samples;Min_cycle;Max_cycle;Signal;HPM_P1;HPM_P2
2023/10/11 00:00:44;;;;;;;21.33;2.50;;;12.40;99.90;;;;;;6250966;23;20495;-82
2023/10/11 00:05:55;;;;;;;2.40;2.30;;;12.70;99.90;;;;;;6250293;23;20168;-80
2023/10/11 00:08:25;;;;;;;16.42;4.43;;;12.70;99.90;;;;;;6252347;23;20206;-78
2023/10/11 00:10:56;;;;;;;2.40;2.30;;;12.50;99.90;;;;;;6250685;23;20696;-78
2023/10/11 00:13:36;;;;;;;1.90;1.80;;;12.70;99.90;;;;;;6253986;23;20190;-84
2023/10/11 00:16:09;;;;;;;0.40;0.40;;;13.00;99.90;;;;;;6225795;23;20168;-79
2023/10/11 00:18:41;;;;;;;1.77;1.65;;;12.80;99.90;;;;;;6251852;23;20168;-79
2023/10/11 00:21:11;;;;;;;8.00;5.78;;;12.80;99.90;;;;;;6248753;23;20199;-79
2023/10/11 00:23:41;;;;;;;0.93;0.93;;;12.70;99.90;;;;;;6249557;23;20229;-77
2023/10/11 00:26:08;;;;;;;1.15;1.15;;;12.50;99.90;;;;;;6249744;23;20184;-81
2023/10/11 00:28:37;;;;;;;3.65;3.35;;;12.90;99.90;;;;;;6224446;23;20364;-78
2023/10/11 00:31:12;;;;;;;0.88;0.88;;;12.80;99.90;;;;;;6259912;23;20487;-80
2023/10/11 00:33:40;;;;;;;2.90;2.70;;;;;;;;;;6255400;23;20159;-78
2023/10/11 00:36:08;;;;;;;0.95;0.95;;;;;;;;;;6253950;23;20523;-79
2023/10/11 00:38:43;;;;;;;0.82;0.82;;;13.10;99.90;;;;;;6252633;23;20516;-78
2023/10/11 00:41:15;;;;;;;0.80;0.80;;;;;;;;;;6253511;23;20190;-81
2023/10/11 00:43:52;;;;;;;1.48;1.38;;;12.80;99.90;;;;;;6227840;23;20163;-82
2023/10/11 00:46:25;;;;;;;2.53;2.35;;;13.10;99.90;;;;;;6252772;23;20478;-80
2023/10/11 00:48:56;;;;;;;2.72;1.48;;;13.00;99.90;;;;;;6249954;23;20233;-79
2023/10/11 00:51:29;;;;;;;4.38;4.15;;;12.50;99.90;;;;;;6249579;23;20221;-79
2023/10/11 00:54:02;;;;;;;6.38;2.00;;;13.10;99.90;;;;;;6249439;23;20183;-78
2023/10/11 00:56:32;;;;;;;1.63;0.80;;;12.90;99.90;;;;;;6250009;23;20183;-78
2023/10/11 00:59:08;;;;;;;3.25;3.05;;;12.90;99.90;;;;;;6250501;23;20168;-79
2023/10/11 01:01:37;;;;;;;1.55;0.90;;;12.70;99.90;;;;;;6248482;23;20254;-79
2023/10/11 01:04:06;;;;;;;1.85;1.75;;;;;;;;;;6249024;23;20183;-78
2023/10/11 01:06:34;;;;;;;1.25;1.25;;;;;;;;;;6248907;23;20184;-78
2023/10/11 01:09:18;;;;;;;1.33;1.27;;;12.90;99.90;;;;;;6249243;23;20187;-79
2023/10/11 01:11:47;;;;;;;3.25;3.03;;;12.70;99.90;;;;;;6248383;23;20224;-77
2023/10/11 01:14:15;;;;;;;2.47;2.38;;;;;;;;;;6249017;23;20400;-78
2023/10/11 01:16:43;;;;;;;2.08;1.98;;;12.60;99.90;;;;;;6251246;23;20199;-79
2023/10/11 01:19:11;;;;;;;3.40;3.25;;;12.70;99.90;;;;;;6225115;23;20184;-81
2023/10/11 01:21:39;;;;;;;1.42;1.42;;;13.10;99.90;;;;;;6224495;23;20245;-79
2023/10/11 01:24:09;;;;;;;0.73;0.73;;;12.70;99.90;;;;;;6249723;23;20190;-79
2023/10/11 01:26:36;;;;;;;1.20;1.20;;;12.30;99.90;;;;;;6249223;23;20168;-79
2023/10/11 01:29:05;;;;;;;2.10;2.00;;;;;;;;;;6249038;23;20230;-79
2023/10/11 01:31:41;;;;;;;3.28;3.10;;;;;;;;;;6249233;23;20171;-79
2023/10/11 01:34:13;;;;;;;1.90;1.80;;;;;;;;;;6249874;23;20179;-77
2023/10/11 01:36:42;;;;;;;1.45;1.45;;;12.70;99.90;;;;;;6249907;23;20168;-79
2023/10/11 01:39:11;;;;;;;2.97;2.88;;;;;;;;;;6227262;23;20210;-81
2023/10/11 01:41:42;;;;;;;3.60;3.28;;;12.50;99.90;;;;;;6251780;23;20203;-80
2023/10/11 01:44:10;;;;;;;2.22;2.13;;;12.80;99.90;;;;;;6250191;23;20174;-80
2023/10/11 01:46:39;;;;;;;0.93;0.93;;;12.80;99.90;;;;;;6249847;23;20298;-80
2023/10/11 01:49:08;;;;;;;1.00;1.00;;;;;;;;;;6222795;23;20183;-79
2023/10/11 01:51:39;;;;;;;3.40;3.20;;;;;;;;;;6250133;23;20246;-79
2023/10/11 01:54:06;;;;;;;1.38;1.33;;;12.50;99.90;;;;;;6249402;23;20219;-79
2023/10/11 01:56:34;;;;;;;2.08;1.98;;;12.60;99.90;;;;;;6223591;23;20183;-79
2023/10/11 01:59:01;;;;;;;2.22;2.13;;;12.80;99.90;;;;;;6248902;23;20183;-79
2023/10/11 02:01:38;;;;;;;1.77;1.67;;;12.60;99.90;;;;;;6250265;23;20203;-78
2023/10/11 02:04:20;;;;;;;1.48;1.38;;;12.60;99.90;;;;;;6223070;23;20170;-79
2023/10/11 02:06:47;;;;;;;4.22;4.03;;;12.90;99.90;;;;;;6249056;23;20191;-79
2023/10/11 02:09:20;;;;;;;1.55;1.45;;;;;;;;;;6249982;23;20203;-78
2023/10/11 02:11:52;;;;;;;3.78;3.58;;;;;;;;;;6249082;23;20206;-78
2023/10/11 02:14:22;;;;;;;2.10;2.00;;;12.50;99.90;;;;;;6249960;23;20168;-80
2023/10/11 02:16:50;;;;;;;1.25;1.25;;;;;;;;;;6251309;23;20184;-80
2023/10/11 02:19:18;;;;;;;1.85;1.75;;;;;;;;;;6259203;23;20199;-81
2023/10/11 02:21:46;;;;;;;2.92;2.75;;;;;;;;;;6247024;23;20191;-80
2023/10/11 02:24:16;;;;;;;3.42;3.22;;;;;;;;;;6272206;22;20175;-80
2023/10/11 02:26:50;;;;;;;2.33;2.22;;;12.90;99.90;;;;;;6270983;22;20156;-81
2023/10/11 02:29:22;;;;;;;2.03;1.95;;;;;;;;;;6255754;23;20171;-81
2023/10/11 02:31:53;;;;;;;3.00;2.80;;;16.20;99.90;;;;;;6252502;23;20231;-80
2023/10/11 02:34:22;;;;;;;2.20;2.10;;;12.50;99.90;;;;;;6252133;23;20168;-81
2023/10/11 02:37:01;;;;;;;2.65;2.40;;;;;;;;;;6251410;23;20373;-80
2023/10/11 02:39:31;;;;;;;0.70;0.70;;;12.80;99.90;;;;;;6251392;23;20167;-80
2023/10/11 02:42:00;;;;;;;2.65;2.10;;;;;;;;;;6250218;23;20211;-81
2023/10/11 02:44:28;;;;;;;2.00;1.90;;;;;;;;;;6225032;23;20176;-80
2023/10/11 02:46:58;;;;;;;2.70;2.50;;;12.70;99.90;;;;;;6250802;23;20217;-80
2023/10/11 02:49:31;;;;;;;1.90;1.80;;;12.40;99.90;;;;;;6251093;23;20168;-80
2023/10/11 02:52:05;;;;;;;1.67;1.58;;;12.70;99.90;;;;;;6254779;23;20506;-80
2023/10/11 02:54:38;;;;;;;1.58;1.58;;;;;;;;;;6250616;23;20174;-79
2023/10/11 02:57:20;;;;;;;1.83;1.75;;;12.50;99.90;;;;;;6250888;23;20168;-80
2023/10/11 02:59:50;;;;;;;4.90;1.27;;;12.40;99.90;;;;;;6250332;23;20188;-79
2023/10/11 03:02:21;;;;;;;2.78;2.60;;;12.30;99.90;;;;;;6250528;23;20184;-77
2023/10/11 03:04:49;;;;;;;0.95;0.95;;;;;;;;;;6249915;23;20207;-79
2023/10/11 03:07:23;;;;;;;3.67;3.47;;;12.30;99.90;;;;;;6223610;23;20239;-79
2023/10/11 03:09:53;;;;;;;4.45;4.18;;;12.90;99.90;;;;;;6250269;23;20172;-79
2023/10/11 03:12:31;;;;;;;3.80;3.60;;;12.70;99.90;;;;;;6249977;23;20178;-80
2023/10/11 03:15:09;;;;;;;2.47;2.38;;;;;;;;;;6249537;23;20644;-79
2023/10/11 03:17:45;;;;;;;4.03;3.72;;;;;;;;;;6251307;23;20159;-79
2023/10/11 03:20:36;;;;;;;2.53;2.38;;;12.70;99.90;;;;;;6249802;23;20173;-80
2023/10/11 03:23:11;;;;;;;3.58;3.38;;;12.40;99.90;;;;;;6249397;23;20199;-78
2023/10/11 03:25:38;;;;;;;1.60;1.50;;;12.40;99.90;;;;;;6250490;23;20468;-79
2023/10/11 03:28:06;;;;;;;1.00;1.00;;;12.60;99.90;;;;;;6250311;23;20212;-79
2023/10/11 03:30:38;;;;;;;1.83;1.73;;;;;;;;;;6250585;23;20555;-79
2023/10/11 03:33:07;;;;;;;2.13;2.05;;;12.00;99.90;;;;;;6249782;23;20205;-80
2023/10/11 03:35:38;;;;;;;2.75;2.63;;;;;;;;;;6250307;23;20207;-78
2023/10/11 03:38:16;;;;;;;1.95;1.88;;;12.60;99.90;;;;;;6223459;23;20171;-79
2023/10/11 03:40:54;;;;;;;2.45;2.35;;;12.70;99.90;;;;;;6249693;23;20168;-79
2023/10/11 03:43:23;;;;;;;2.55;2.45;;;12.60;99.90;;;;;;6250588;23;20230;-78
2023/10/11 03:45:56;;;;;;;1.10;1.10;;;12.60;99.90;;;;;;6250611;23;20190;-79
2023/10/11 03:48:28;;;;;;;1.48;1.48;;;;;;;;;;6251779;23;20167;-79
2023/10/11 03:50:56;;;;;;;1.75;1.70;;;;;;;;;;6261849;23;20156;-78
2023/10/11 03:53:24;;;;;;;2.08;1.98;;;;;;;;;;6251902;23;20195;-78
2023/10/11 03:55:53;;;;;;;3.58;3.38;;;12.10;99.90;;;;;;6252269;23;20183;-80
2023/10/11 03:58:33;;;;;;;2.55;2.38;;;;;;;;;;6228318;23;20210;-78
2023/10/11 04:01:11;;;;;;;2.38;2.28;;;12.70;99.90;;;;;;6255427;23;20163;-79
2023/10/11 04:03:40;;;;;;;1.63;1.58;;;12.40;99.90;;;;;;6251497;23;20183;-79
2023/10/11 04:06:14;;;;;;;0.93;0.93;;;12.30;99.90;;;;;;6250954;23;20207;-79
2023/10/11 04:09:02;;;;;;;2.42;2.33;;;12.40;99.90;;;;;;6250873;23;20657;-80
2023/10/11 04:12:10;;;;;;;1.20;1.15;;;12.30;99.90;;;;;;6225085;23;20348;-81
2023/10/11 04:14:39;;;;;;;3.15;3.05;;;12.30;99.90;;;;;;6248930;23;20274;-80
2023/10/11 04:22:51;;;;;;;1.17;1.17;;;12.00;99.90;;;;;;6251090;23;20214;-80
2023/10/11 04:25:22;;;;;;;0.80;0.80;;;12.80;99.90;;;;;;6250986;23;20171;-80
2023/10/11 04:27:57;;;;;;;1.05;1.05;;;;;;;;;;6249861;23;20255;-81
2023/10/11 04:30:27;;;;;;;0.60;0.60;;;12.90;99.90;;;;;;6249597;23;20198;-80
2023/10/11 04:32:57;;;;;;;1.13;1.13;;;12.40;99.90;;;;;;6223981;23;20174;-82
2023/10/11 04:35:36;;;;;;;2.97;2.88;;;;;;;;;;6250840;23;20175;-81
2023/10/11 04:38:04;;;;;;;2.25;2.15;;;12.30;99.90;;;;;;6249808;23;20423;-82
2023/10/11 04:43:25;;;;;;;2.65;2.50;;;12.40;99.90;;;;;;6250379;23;20243;-81
2023/10/11 04:45:55;;;;;;;0.63;0.63;;;12.50;99.90;;;;;;6250042;23;20167;-81
2023/10/11 04:48:32;;;;;;;0.90;0.90;;;12.50;99.90;;;;;;6249876;23;20168;-80
2023/10/11 04:53:57;;;;;;;2.42;2.33;;;12.20;99.90;;;;;;6251068;23;20172;-81
2023/10/11 04:59:36;;;;;;;1.45;1.35;;;12.50;99.90;;;;;;6249716;23;20242;-81
2023/10/11 05:02:09;;;;;;;1.15;1.13;;;12.50;99.90;;;;;;6219983;23;20211;-80
2023/10/11 05:04:42;;;;;;;3.28;3.08;;;12.60;99.90;;;;;;6222015;23;20175;-82
2023/10/11 05:07:10;;;;;;;3.22;3.03;;;;;;;;;;6248771;23;20425;-80
2023/10/11 05:09:39;;;;;;;2.13;2.03;;;12.50;99.90;;;;;;6249700;23;20480;-79
2023/10/11 05:12:12;;;;;;;1.60;1.50;;;13.20;99.90;;;;;;6251766;23;20172;-85
2023/10/11 05:19:53;;;;;;;1.33;1.27;;;12.40;99.90;;;;;;6248393;23;20267;-82
2023/10/11 05:25:15;;;;;;;7.22;3.17;;;12.50;99.90;;;;;;6250289;23;20229;-82
2023/10/11 05:27:56;;;;;;;1.02;1.00;;;;;;;;;;6248504;23;20238;-81
2023/10/11 05:30:32;;;;;;;0.95;0.95;;;12.40;99.90;;;;;;6248371;23;20469;-82
2023/10/11 05:52:19;;;;;;;2.08;1.98;;;;;;;;;;6248918;23;20199;-81
2023/10/11 05:54:49;;;;;;;1.67;1.58;;;;;;;;;;6223700;23;20207;-81
2023/10/11 05:57:19;;;;;;;1.38;1.27;;;;;;;;;;6248817;23;20203;-84
2023/10/11 05:59:48;;;;;;;1.73;1.63;;;;;;;;;;6248635;23;20480;-81
2023/10/11 06:02:18;;;;;;;2.45;2.35;;;13.20;99.90;;;;;;6249212;23;20206;-81
2023/10/11 06:04:46;;;;;;;1.38;1.33;;;;;;;;;;6249840;23;20187;-80
2023/10/11 06:07:16;;;;;;;1.40;1.30;;;13.50;99.90;;;;;;6251382;23;20183;-82
2023/10/11 06:09:45;;;;;;;2.08;1.98;;;13.30;99.90;;;;;;6251058;23;20475;-81
2023/10/11 06:12:25;;;;;;;3.10;2.77;;;15.30;99.90;;;;;;6251774;23;20218;-82
2023/10/11 06:14:57;;;;;;;2.40;2.30;;;13.80;99.90;;;;;;6254955;23;20360;-81
2023/10/11 06:17:41;;;;;;;1.90;1.80;;;13.90;99.90;;;;;;6262905;23;20351;-80
2023/10/11 06:20:26;;;;;;;3.00;2.70;;;14.00;99.90;;;;;;6272637;23;20442;-80
2023/10/11 06:22:54;;;;;;;2.67;2.47;;;14.20;99.90;;;;;;6264629;23;20390;-81
2023/10/11 06:28:14;;;;;;;2.60;2.40;;;14.20;99.90;;;;;;6255621;23;20383;-80
2023/10/11 06:30:47;;;;;;;1.00;1.00;;;14.30;99.90;;;;;;6252043;23;20377;-80
2023/10/11 06:33:15;;;;;;;1.37;1.37;;;14.40;99.90;;;;;;6225210;23;20377;-80
2023/10/11 06:35:49;;;;;;;2.80;2.70;;;14.40;99.90;;;;;;6252084;23;20392;-79
2023/10/11 06:38:16;;;;;;;1.03;1.03;;;14.50;99.90;;;;;;6224588;23;20389;-79
2023/10/11 06:40:54;;;;;;;1.73;1.63;;;14.50;99.90;;;;;;6251712;23;20402;-80
2023/10/11 06:43:22;;;;;;;2.50;2.40;;;14.60;99.90;;;;;;6251197;23;20415;-81
2023/10/11 06:45:50;;;;;;;1.37;1.27;;;14.70;99.90;;;;;;6252156;23;20407;-80
2023/10/11 06:48:17;;;;;;;1.57;1.50;;;14.80;99.90;;;;;;6227374;23;20422;-80
2023/10/11 06:50:46;;;;;;;0.90;0.90;;;15.00;99.90;;;;;;6271714;22;20408;-80
2023/10/11 06:53:13;;;;;;;1.73;1.63;;;15.20;99.90;;;;;;6273938;22;20392;-80
2023/10/11 06:55:47;;;;;;;0.67;0.67;;;15.20;99.90;;;;;;6272649;22;20440;-79
2023/10/11 06:58:19;;;;;;;1.30;1.30;;;15.30;99.90;;;;;;6264196;22;20727;-80
2023/10/11 07:00:46;;;;;;;2.53;2.33;;;15.50;99.90;;;;;;6224883;23;20403;-79
2023/10/11 07:05:56;;;;;;;1.10;1.10;;;15.80;99.90;;;;;;6256302;23;20390;-80
2023/10/11 07:08:35;;;;;;;2.30;2.20;;;15.80;99.90;;;;;;6274533;23;20429;-80
2023/10/11 07:16:24;;;;;;;2.83;2.63;;;17.30;99.90;;;;;;6249402;23;20439;-80
2023/10/11 07:18:54;;;;;;;1.07;1.07;;;18.10;99.90;;;;;;6251628;23;20364;-80
2023/10/11 07:21:25;;;;;;;3.60;2.90;;;18.40;99.90;;;;;;6250466;23;20380;-79
2023/10/11 07:26:47;;;;;;;2.10;1.70;;;19.10;99.90;;;;;;6250138;23;20413;-79
2023/10/11 07:29:14;;;;;;;0.90;0.90;;;19.40;99.90;;;;;;6248816;23;20409;-80
2023/10/11 07:31:51;;;;;;;0.93;0.93;;;19.90;99.90;;;;;;6249659;23;20378;-80
2023/10/11 07:34:25;;;;;;;1.67;1.37;;;20.70;99.90;;;;;;6249832;23;20778;-80
2023/10/11 07:36:52;;;;;;;1.17;1.17;;;21.00;99.90;;;;;;6250008;23;20366;-82
2023/10/11 07:39:25;;;;;;;1.37;1.33;;;21.10;99.90;;;;;;6249973;23;20468;-81
2023/10/11 07:42:03;;;;;;;3.90;1.73;;;21.00;99.90;;;;;;6248825;23;20412;-80
2023/10/11 07:44:31;;;;;;;1.53;1.53;;;20.70;99.90;;;;;;6248627;23;20834;-79
2023/10/11 07:46:58;;;;;;;3.43;3.23;;;20.90;99.90;;;;;;6248965;23;20397;-83
2023/10/11 07:49:24;;;;;;;4.60;1.70;;;20.70;99.90;;;;;;6249379;23;20400;-81
2023/10/11 07:51:58;;;;;;;2.53;2.43;;;20.30;99.90;;;;;;6249098;23;20425;-80
2023/10/11 07:54:26;;;;;;;1.93;1.83;;;19.70;99.90;;;;;;6248877;23;20796;-79
2023/10/11 07:56:57;;;;;;;1.70;1.63;;;19.20;99.90;;;;;;6249626;23;20488;-82
2023/10/11 07:59:28;;;;;;;1.40;1.40;;;19.10;99.90;;;;;;6250554;23;20895;-80
2023/10/11 08:01:59;;;;;;;1.00;1.00;;;19.10;99.90;;;;;;6224509;23;20409;-79
2023/10/11 08:04:29;;;;;;;2.70;2.60;;;18.80;99.90;;;;;;6249525;23;20536;-80
2023/10/11 08:07:06;;;;;;;1.87;1.77;;;18.70;99.90;;;;;;6222714;23;20414;-81
2023/10/11 08:09:52;;;;;;;2.10;2.00;;;19.00;99.90;;;;;;6250144;23;20368;-79
2023/10/11 08:12:23;;;;;;;2.00;1.90;;;19.20;99.90;;;;;;6248912;23;20362;-80
2023/10/11 08:14:56;;;;;;;2.20;2.10;;;19.90;99.90;;;;;;6250801;23;20365;-78
2023/10/11 08:17:29;;;;;;;1.83;1.73;;;20.40;99.90;;;;;;6253747;23;20449;-79
2023/10/11 08:19:58;;;;;;;2.10;2.00;;;20.50;99.90;;;;;;6248654;23;20645;-84
2023/10/11 08:22:27;;;;;;;1.30;1.30;;;20.40;99.90;;;;;;6248802;23;20433;-79
2023/10/11 08:24:59;;;;;;;1.70;1.60;;;20.60;99.90;;;;;;6247889;23;20440;-80
2023/10/11 08:27:29;;;;;;;2.53;2.33;;;20.40;99.90;;;;;;6247471;23;20419;-80
2023/10/11 08:30:16;;;;;;;1.00;1.00;;;20.20;99.90;;;;;;6248794;23;20378;-80
2023/10/11 08:32:46;;;;;;;1.63;1.53;;;20.20;99.90;;;;;;6247881;23;20427;-80
2023/10/11 08:35:23;;;;;;;1.97;1.87;;;20.20;99.90;;;;;;6248103;23;20547;-80
2023/10/11 08:37:52;;;;;;;14.63;2.70;;;19.90;99.90;;;;;;6247822;23;20400;-82
2023/10/11 08:40:20;;;;;;;2.60;2.40;;;19.80;99.90;;;;;;6249059;23;20768;-80
2023/10/11 08:42:51;;;;;;;1.40;1.40;;;19.80;99.90;;;;;;6248069;23;20413;-80
2023/10/11 08:45:32;;;;;;;1.53;1.43;;;19.90;99.90;;;;;;6222867;23;20465;-82
2023/10/11 08:48:01;;;;;;;1.37;1.37;;;20.00;99.90;;;;;;6249175;23;20455;-81
2023/10/11 08:50:35;;;;;;;1.30;1.30;;;20.20;99.90;;;;;;6249213;23;20376;-79
2023/10/11 08:53:09;;;;;;;1.60;1.50;;;20.00;99.90;;;;;;6249804;23;20366;-80
2023/10/11 08:55:41;;;;;;;1.77;1.67;;;19.90;99.90;;;;;;6250324;23;20435;-81
2023/10/11 08:58:12;;;;;;;1.30;1.30;;;19.90;99.90;;;;;;6250186;23;20614;-81
2023/10/11 09:00:47;;;;;;;1.87;1.77;;;20.00;99.90;;;;;;6249066;23;20382;-79
2023/10/11 09:03:19;;;;;;;0.93;0.93;;;19.80;99.90;;;;;;6248653;23;20601;-81
2023/10/11 09:05:47;;;;;;;1.23;1.23;;;20.00;99.90;;;;;;6248651;23;20435;-82
2023/10/11 09:08:22;;;;;;;1.93;1.83;;;20.00;99.90;;;;;;6248595;23;20564;-79
2023/10/11 09:10:50;;;;;;;4.50;1.57;;;20.00;99.90;;;;;;6248387;23;20465;-78
2023/10/11 09:13:27;;;;;;;6.80;3.73;;;20.20;99.90;;;;;;6221509;23;20472;-79
2023/10/11 09:15:54;;;;;;;1.23;1.20;;;20.30;99.90;;;;;;6248700;23;20428;-79
2023/10/11 09:18:25;;;;;;;1.40;1.40;;;20.30;99.90;;;;;;6250508;23;20777;-79
2023/10/11 09:21:36;;;;;;;4.80;4.30;;;20.60;99.90;;;;;;6248549;23;20396;-80
2023/10/11 09:23:49;;;;;;;0.90;0.90;;;20.60;99.90;;;;;;6240331;23;20436;-81
2023/10/11 09:26:34;;;;;;;1.53;1.43;;;20.70;99.90;;;;;;6249135;23;20374;-79
2023/10/11 09:29:08;;;;;;;2.47;2.27;;;20.70;99.90;;;;;;6247930;23;20385;-78
2023/10/11 09:31:57;;;;;;;1.70;1.60;;;21.00;99.90;;;;;;6248729;23;20428;-80
2023/10/11 09:34:29;;;;;;;1.20;1.17;;;21.30;99.90;;;;;;6247613;23;20864;-81
2023/10/11 09:36:58;;;;;;;1.10;1.10;;;21.30;99.90;;;;;;6248361;23;20397;-84
2023/10/11 09:39:29;;;;;;;1.83;1.73;;;21.30;99.90;;;;;;6248423;23;20404;-79
2023/10/11 09:42:02;;;;;;;1.40;1.40;;;21.50;99.90;;;;;;6248589;23;20379;-79
2023/10/11 09:44:37;;;;;;;1.20;1.20;;;21.40;99.90;;;;;;6248136;23;20419;-79
2023/10/11 09:47:05;;;;;;;2.20;2.10;;;21.50;99.90;;;;;;6248670;23;20595;-80
2023/10/11 09:49:42;;;;;;;1.40;1.33;;;21.60;99.90;;;;;;6248329;23;20420;-82
2023/10/11 09:52:11;;;;;;;1.50;1.40;;;21.60;99.90;;;;;;6221792;23;20629;-81
2023/10/11 09:54:39;;;;;;;0.90;0.90;;;21.70;99.90;;;;;;6248322;23;20725;-79
2023/10/11 09:57:22;;;;;;;1.57;1.27;;;21.70;99.90;;;;;;6248599;23;20401;-81
2023/10/11 10:00:08;;;;;;;1.23;1.17;;;21.50;99.90;;;;;;6260926;22;20388;-80
2023/10/11 10:02:44;;;;;;;1.43;1.37;;;21.40;99.90;;;;;;6269900;22;20373;-84
2023/10/11 10:05:12;;;;;;;1.33;1.33;;;21.40;99.90;;;;;;6250028;23;20420;-81
2023/10/11 10:07:44;;;;;;;1.20;1.20;;;21.10;99.90;;;;;;6248252;23;20396;-80
2023/10/11 10:10:16;;;;;;;1.73;1.63;;;21.00;99.90;;;;;;6248196;23;20356;-82
2023/10/11 10:12:55;;;;;;;1.40;1.40;;;21.00;99.90;;;;;;6221876;23;20448;-81
2023/10/11 10:15:24;;;;;;;0.80;0.80;;;21.10;99.90;;;;;;6248469;23;20408;-80
2023/10/11 10:17:56;;;;;;;1.13;1.13;;;21.00;99.90;;;;;;6248323;23;20387;-80
2023/10/11 10:20:43;;;;;;;1.23;1.23;;;21.00;99.90;;;;;;6248021;23;20980;-79
2023/10/11 10:23:22;;;;;;;1.97;1.87;;;21.10;99.90;;;;;;6247859;23;20772;-81
2023/10/11 10:26:13;;;;;;;1.10;1.10;;;21.20;99.90;;;;;;6249301;23;20384;-80
2023/10/11 10:28:39;;;;;;;1.10;1.10;;;21.40;99.90;;;;;;6248513;23;20820;-82
2023/10/11 10:31:25;;;;;;;2.27;2.07;;;21.40;99.90;;;;;;6251663;23;20426;-80
2023/10/11 10:34:04;;;;;;;1.27;1.20;;;21.40;99.90;;;;;;6257654;23;20392;-79
2023/10/11 10:36:31;;;;;;;2.47;2.37;;;21.30;99.90;;;;;;6251695;23;20613;-85
2023/10/11 10:39:01;;;;;;;6.67;4.87;;;21.20;99.90;;;;;;6248959;23;20367;-81
2023/10/11 10:41:33;;;;;;;4.63;3.20;;;21.00;99.90;;;;;;6248823;23;20844;-80
2023/10/11 10:44:11;;;;;;;3.63;1.73;;;20.80;99.90;;;;;;6248631;23;20456;-81
2023/10/11 10:46:55;;;;;;;1.73;1.63;;;20.80;99.90;;;;;;6254832;23;20419;-79
2023/10/11 10:49:47;;;;;;;1.73;1.63;;;21.00;99.90;;;;;;6250797;23;20369;-81
2023/10/11 10:52:18;;;;;;;7.13;2.17;;;20.90;99.90;;;;;;6250641;23;20393;-83
2023/10/11 10:54:56;;;;;;;2.00;1.47;;;20.90;99.90;;;;;;6250093;23;20393;-83
2023/10/11 10:57:24;;;;;;;1.63;1.57;;;21.00;99.90;;;;;;6252106;23;20421;-80
2023/10/11 10:59:51;;;;;;;1.20;1.20;;;21.10;99.90;;;;;;6250608;23;20397;-80
2023/10/11 11:02:19;;;;;;;0.80;0.80;;;21.30;99.90;;;;;;6228743;23;20424;-82
2023/10/11 11:04:46;;;;;;;2.43;2.30;;;21.50;99.90;;;;;;6227030;23;20807;-81
2023/10/11 11:07:24;;;;;;;1.10;1.10;;;21.40;99.90;;;;;;6224208;23;20745;-81
2023/10/11 11:09:57;;;;;;;1.00;1.00;;;21.40;99.90;;;;;;6224452;23;20371;-85
2023/10/11 11:12:29;;;;;;;2.03;1.93;;;21.50;99.90;;;;;;6226603;23;20405;-82
2023/10/11 11:14:58;;;;;;;1.83;1.73;;;21.70;99.90;;;;;;6251701;23;20392;-79
2023/10/11 11:17:47;;;;;;;1.23;1.20;;;21.80;99.90;;;;;;6252142;23;20459;-82
2023/10/11 11:20:27;;;;;;;3.90;3.00;;;21.80;99.90;;;;;;6253077;23;20378;-82
2023/10/11 11:22:55;;;;;;;1.63;1.53;;;21.60;99.90;;;;;;6254742;23;20380;-85
2023/10/11 11:25:27;;;;;;;1.10;1.10;;;21.60;99.90;;;;;;6272364;22;20433;-83
2023/10/11 11:28:18;;;;;;;3.03;2.30;;;21.70;99.90;;;;;;6273371;22;20404;-82
2023/10/11 11:30:51;;;;;;;1.20;1.20;;;21.70;99.90;;;;;;6272748;23;20381;-80
2023/10/11 11:33:29;;;;;;;2.90;2.70;;;22.00;99.90;;;;;;6264179;22;20405;-81
2023/10/11 11:35:56;;;;;;;1.33;1.33;;;21.90;99.90;;;;;;6255571;23;20379;-84
2023/10/11 11:38:23;;;;;;;1.63;1.53;;;22.00;99.90;;;;;;6254913;23;20397;-88
2023/10/11 11:40:51;;;;;;;1.40;1.40;;;22.10;99.90;;;;;;6252533;23;20476;-87
2023/10/11 11:43:24;;;;;;;2.10;2.00;;;22.20;99.90;;;;;;6250808;23;20416;-82
2023/10/11 11:45:56;;;;;;;1.77;1.67;;;22.30;99.90;;;;;;6251175;23;20724;-82
2023/10/11 11:48:23;;;;;;;1.77;1.67;;;22.20;99.90;;;;;;6250917;23;20385;-83
2023/10/11 11:50:56;;;;;;;0.90;0.90;;;22.10;99.90;;;;;;6255439;23;20489;-81
2023/10/11 11:53:23;;;;;;;1.43;1.43;;;22.30;99.90;;;;;;6231473;23;20666;-79
2023/10/11 11:55:50;;;;;;;1.60;1.50;;;21.90;99.90;;;;;;6256324;23;20461;-79
2023/10/11 11:58:17;;;;;;;2.10;2.00;;;22.10;99.90;;;;;;6253533;23;20395;-82
2023/10/11 12:01:08;;;;;;;1.40;1.40;;;22.10;99.90;;;;;;6258422;23;20401;-82
2023/10/11 12:03:36;;;;;;;1.70;1.70;;;22.10;99.90;;;;;;6250966;23;20644;-84
2023/10/11 12:06:21;;;;;;;1.43;1.40;;;22.00;99.90;;;;;;6250003;23;20503;-80
2023/10/11 12:08:59;;;;;;;2.50;2.30;;;22.00;99.90;;;;;;6224882;23;20377;-83
2023/10/11 12:11:29;;;;;;;1.57;1.53;;;22.00;99.90;;;;;;6258198;23;20381;-80
2023/10/11 12:13:58;;;;;;;0.90;0.90;;;22.10;99.90;;;;;;6251789;23;20400;-80
2023/10/11 12:16:28;;;;;;;1.90;1.83;;;22.00;99.90;;;;;;6250377;23;20436;-83
2023/10/11 12:19:00;;;;;;;1.13;1.13;;;22.00;99.90;;;;;;6253348;23;20459;-81
2023/10/11 12:21:28;;;;;;;2.80;2.60;;;22.00;99.90;;;;;;6251267;23;20374;-84
2023/10/11 12:23:56;;;;;;;1.20;1.20;;;22.10;99.90;;;;;;6255704;23;20432;-83
2023/10/11 12:26:26;;;;;;;1.23;1.23;;;21.90;99.90;;;;;;6255164;23;20581;-81
2023/10/11 12:28:54;;;;;;;6.63;5.20;;;21.90;99.90;;;;;;6254388;22;20393;-80
2023/10/11 12:31:21;;;;;;;1.40;1.30;;;21.90;99.90;;;;;;6250002;23;20413;-80
2023/10/11 12:33:48;;;;;;;1.80;1.70;;;21.90;99.90;;;;;;6249944;23;20416;-81
2023/10/11 12:36:19;;;;;;;2.83;2.70;;;21.90;99.90;;;;;;6250586;23;20389;-82
2023/10/11 12:38:48;;;;;;;1.00;1.00;;;21.80;99.90;;;;;;6225194;23;20369;-80
2023/10/11 12:41:16;;;;;;;1.90;1.80;;;21.90;99.90;;;;;;6250337;23;20397;-82
2023/10/11 12:43:49;;;;;;;1.13;1.13;;;21.90;99.90;;;;;;6250103;23;20426;-81
2023/10/11 12:46:18;;;;;;;0.90;0.90;;;21.90;99.90;;;;;;6251266;23;20450;-79
2023/10/11 12:48:54;;;;;;;1.30;1.30;;;21.80;99.90;;;;;;6249567;23;20411;-83
2023/10/11 12:51:23;;;;;;;0.80;0.80;;;21.80;99.90;;;;;;6249567;23;20381;-81
2023/10/11 12:53:54;;;;;;;1.20;1.20;;;21.80;99.90;;;;;;6257669;23;20459;-79
2023/10/11 12:56:26;;;;;;;1.20;1.20;;;21.80;99.90;;;;;;6258086;23;20610;-80
2023/10/11 12:58:54;;;;;;;2.57;2.37;;;21.80;99.90;;;;;;6251530;23;20626;-88
2023/10/11 13:01:38;;;;;;;1.60;1.50;;;21.90;99.90;;;;;;6250364;23;20435;-81
2023/10/11 13:04:08;;;;;;;2.70;2.40;;;21.90;99.90;;;;;;6259634;23;20469;-80
2023/10/11 13:06:39;;;;;;;0.90;0.90;;;21.80;99.90;;;;;;6262108;23;20500;-81
2023/10/11 13:09:21;;;;;;;1.43;1.43;;;21.80;99.90;;;;;;6223775;23;20413;-81
2023/10/11 13:11:48;;;;;;;1.00;1.00;;;21.70;99.90;;;;;;6249413;23;20448;-82
2023/10/11 13:14:20;;;;;;;2.00;1.90;;;21.80;99.90;;;;;;6249188;23;20733;-80
2023/10/11 13:17:08;;;;;;;2.57;2.37;;;21.90;99.90;;;;;;6251270;23;20432;-80
2023/10/11 13:19:35;;;;;;;5.00;3.50;;;21.90;99.90;;;;;;6249542;23;20920;-81
2023/10/11 13:22:09;;;;;;;1.07;1.07;;;21.90;99.90;;;;;;6220999;23;20401;-86
2023/10/11 13:24:36;;;;;;;1.90;1.80;;;21.90;99.90;;;;;;6246880;23;20821;-81
2023/10/11 13:27:04;;;;;;;2.13;1.93;;;22.00;99.90;;;;;;6252490;23;20401;-80
2023/10/11 13:29:31;;;;;;;0.80;0.80;;;22.10;99.90;;;;;;6249512;23;20396;-85
2023/10/11 13:31:58;;;;;;;0.90;0.90;;;22.10;99.90;;;;;;6249946;23;20428;-80
2023/10/11 13:34:33;;;;;;;1.70;1.70;;;22.10;99.90;;;;;;6246313;23;20397;-80
2023/10/11 13:37:00;;;;;;;0.90;0.90;;;22.00;99.90;;;;;;6249567;23;20461;-80
2023/10/11 13:39:28;;;;;;;1.07;1.07;;;21.90;99.90;;;;;;6223033;23;20392;-81
2023/10/11 13:41:58;;;;;;;7.70;3.00;;;22.00;99.90;;;;;;6248280;23;20791;-86
2023/10/11 13:44:25;;;;;;;1.07;1.07;;;22.00;99.90;;;;;;6249395;23;20424;-79
2023/10/11 13:46:58;;;;;;;2.33;2.23;;;21.80;99.90;;;;;;6223386;23;20430;-80
2023/10/11 13:49:32;;;;;;;1.33;1.33;;;21.90;99.90;;;;;;6249192;23;20388;-86
2023/10/11 13:52:02;;;;;;;2.60;2.50;;;21.70;99.90;;;;;;6249696;23;20409;-82
2023/10/11 13:54:42;;;;;;;1.53;1.43;;;21.70;99.90;;;;;;6250146;23;20435;-85
2023/10/11 13:57:11;;;;;;;1.13;1.13;;;21.70;99.90;;;;;;6251453;23;20400;-85
2023/10/11 13:59:45;;;;;;;1.50;1.50;;;21.70;99.90;;;;;;6226196;23;20472;-80
2023/10/11 14:07:50;;;;;;;1.20;1.20;;;21.60;99.90;;;;;;6250003;23;20408;-82
2023/10/11 14:10:26;;;;;;;1.23;1.20;;;21.50;99.90;;;;;;6249479;23;20447;-82
2023/10/11 14:13:07;;;;;;;1.00;1.00;;;21.50;99.90;;;;;;6250007;23;20381;-86
2023/10/11 14:15:36;;;;;;;1.07;1.07;;;21.50;99.90;;;;;;6249715;23;20475;-79
2023/10/11 14:18:11;;;;;;;2.63;2.53;;;21.50;99.90;;;;;;6249354;23;20640;-87
2023/10/11 14:20:45;;;;;;;1.70;1.60;;;21.50;99.90;;;;;;6250157;23;20712;-80
2023/10/11 14:23:15;;;;;;;1.00;1.00;;;21.40;99.90;;;;;;6249793;23;20424;-80
2023/10/11 14:25:43;;;;;;;8.63;3.37;;;21.40;99.90;;;;;;6221867;23;20407;-81
2023/10/11 14:28:14;;;;;;;1.13;1.13;;;21.40;99.90;;;;;;6250657;23;20425;-79
2023/10/11 14:30:41;;;;;;;2.00;1.90;;;21.40;99.90;;;;;;6224303;23;20356;-81